Disclaimer

Please do not use the information listed here in-flight or in-navigation, as they are not provided to us by the airports but are provided by volunteers, so they might be outdated.

Search


Regions


Airport information page

Radio informations:
Tower (TWR) - 118.3 MHz

Airport informations:
Latitude: 27° 26' 43.81" S
Longitude: 058° 45' 42.71" W
Elevation: 203 feet - 62 meters
Operating hours: Remarks
Operating agency: Civil government, landing fees and diplomatic clearance may be required
Timezone: UTC-3
Fuel: Jet A1+, Jet A1 with icing inhibitor.

100/130 MIL Spec, low lead, aviation gasoline (BLUE)

Runway information:
02/20 - 6890 x 148 feet< - >2100 x 45 meters

Recent METARs:
SARC 210600Z 07003KT CAVOK 23/18 Q1012
SARC 210600Z 07003KT CAVOK 23/18 Q1012
SARC 210700Z 07002KT CAVOK 22/18 Q1012

Airport on the map: